createdAt,value
2023-04-12T00:00:29.684Z,24.05
2023-04-12T00:01:29.731Z,24.07
2023-04-12T00:02:29.959Z,24.06
2023-04-12T00:03:29.927Z,24.06
2023-04-12T00:04:29.971Z,24.06
2023-04-12T00:05:29.877Z,24.05
2023-04-12T00:06:29.935Z,24.07
2023-04-12T00:07:29.954Z,24.06
2023-04-12T00:08:30.064Z,24.06
2023-04-12T00:09:30.083Z,24.06
2023-04-12T00:10:30.149Z,24.06
2023-04-12T00:11:30.191Z,24.05
2023-04-12T00:12:30.245Z,24.05
2023-04-12T00:13:30.291Z,24.05
2023-04-12T00:14:30.313Z,24.05
2023-04-12T00:15:30.348Z,24.06
2023-04-12T00:16:30.409Z,24.06
2023-04-12T00:17:30.520Z,24.06
2023-04-12T00:18:30.498Z,24.06
2023-04-12T00:19:30.500Z,24.06
2023-04-12T00:20:30.548Z,24.05
2023-04-12T00:21:30.600Z,24.06
2023-04-12T00:22:30.639Z,24.05
2023-04-12T00:23:30.688Z,24.05
2023-04-12T00:24:30.712Z,24.05
2023-04-12T00:25:30.741Z,24.06
2023-04-12T00:26:30.797Z,24.06
2023-04-12T00:27:30.805Z,24.07
2023-04-12T00:28:30.864Z,24.05
2023-04-12T00:29:30.915Z,24.06
2023-04-12T00:30:30.949Z,24.06
2023-04-12T00:31:31.063Z,24.05
2023-04-12T00:32:31.098Z,24.06
2023-04-12T00:33:31.115Z,24.07
2023-04-12T00:34:31.165Z,24.07
2023-04-12T00:35:31.220Z,24.06
2023-04-12T00:36:31.237Z,24.07
2023-04-12T00:37:31.273Z,24.06
2023-04-12T00:38:31.310Z,24.06
2023-04-12T00:39:31.369Z,24.06
2023-04-12T00:40:31.423Z,24.06
2023-04-12T00:41:31.434Z,24.06
2023-04-12T00:42:31.494Z,24.06
2023-04-12T00:43:31.540Z,24.07
2023-04-12T00:44:31.609Z,24.06
2023-04-12T00:45:31.603Z,24.06
2023-04-12T00:46:31.700Z,24.06
2023-04-12T00:47:31.722Z,24.06
2023-04-12T00:48:31.843Z,24.05
2023-04-12T00:49:31.783Z,24.06
2023-04-12T00:50:31.796Z,24.05
2023-04-12T00:51:31.897Z,24.05
2023-04-12T00:52:31.939Z,24.06
2023-04-12T00:53:31.965Z,24.05
2023-04-12T00:54:31.997Z,24.05
2023-04-12T00:55:32.053Z,24.05
2023-04-12T00:56:32.126Z,24.05
2023-04-12T00:57:32.169Z,24.05
2023-04-12T00:58:32.230Z,24.05
2023-04-12T00:59:32.271Z,24.05
2023-04-12T01:00:32.359Z,24.06
2023-04-12T01:01:32.331Z,24.06
2023-04-12T01:02:32.468Z,24.06
2023-04-12T01:03:32.512Z,24.06
2023-04-12T01:04:32.470Z,24.05
2023-04-12T01:05:32.529Z,24.05
2023-04-12T01:06:32.574Z,24.06
2023-04-12T01:07:32.601Z,24.06
2023-04-12T01:08:32.655Z,24.06
2023-04-12T01:09:32.691Z,24.06
2023-04-12T01:10:32.796Z,24.06
2023-04-12T01:11:32.802Z,24.05
2023-04-12T01:12:32.829Z,24.06
2023-04-12T01:13:32.913Z,24.05
2023-04-12T01:14:32.897Z,24.06
2023-04-12T01:15:32.950Z,24.06
2023-04-12T01:16:33.090Z,24.06
2023-04-12T01:17:33.051Z,24.06
2023-04-12T01:18:33.115Z,24.07
2023-04-12T01:19:33.163Z,24.05
2023-04-12T01:20:33.249Z,24.05
2023-04-12T01:21:33.244Z,24.05
2023-04-12T01:22:33.296Z,24.06
2023-04-12T01:23:33.341Z,24.06
2023-04-12T01:24:33.403Z,24.07
2023-04-12T01:25:33.463Z,24.05
2023-04-12T01:26:33.545Z,24.05
2023-04-12T01:27:33.510Z,24.06
2023-04-12T01:28:33.592Z,24.05
2023-04-12T01:29:33.608Z,24.05
2023-04-12T01:30:33.637Z,24.05
2023-04-12T01:31:33.751Z,24.06
2023-04-12T01:32:33.772Z,24.05
2023-04-12T01:33:33.770Z,24.05
2023-04-12T01:34:33.840Z,24.05
2023-04-12T01:35:35.361Z,24.05
2023-04-12T01:36:33.897Z,24.05
2023-04-12T01:37:33.975Z,24.05
2023-04-12T01:38:34.007Z,24.05
2023-04-12T01:39:34.047Z,24.06
2023-04-12T01:40:34.088Z,24.05
2023-04-12T01:41:34.172Z,24.05
2023-04-12T01:42:34.215Z,24.05
2023-04-12T01:43:34.249Z,24.05
2023-04-12T01:44:34.317Z,24.05
2023-04-12T01:45:34.351Z,24.04
2023-04-12T01:46:34.367Z,24.04
2023-04-12T01:47:34.458Z,24.04
2023-04-12T01:48:34.458Z,24.04
2023-04-12T01:49:34.472Z,24.04
2023-04-12T01:50:34.526Z,24.04
2023-04-12T01:51:34.614Z,24.04
2023-04-12T01:52:34.622Z,24.05
2023-04-12T01:53:34.715Z,24.05
2023-04-12T01:54:34.733Z,24.04
2023-04-12T01:55:34.772Z,24.03
2023-04-12T01:56:34.809Z,24.03
2023-04-12T01:57:34.858Z,24.04
2023-04-12T01:58:34.880Z,24.05
2023-04-12T01:59:34.931Z,24.04
2023-04-12T02:00:34.971Z,24.04
2023-04-12T02:01:35.196Z,24.04
2023-04-12T02:02:35.191Z,24.04
2023-04-12T02:03:35.184Z,24.05
2023-04-12T02:04:35.155Z,24.04
2023-04-12T02:05:35.192Z,24.04
2023-04-12T02:06:35.235Z,24.04
2023-04-12T02:07:35.267Z,24.05
2023-04-12T02:08:35.355Z,24.04
2023-04-12T02:09:35.392Z,24.04
2023-04-12T02:10:35.442Z,24.04
2023-04-12T02:11:35.477Z,24.04
2023-04-12T02:12:35.516Z,24.03
2023-04-12T02:13:35.570Z,24.03
2023-04-12T02:14:35.594Z,24.05
2023-04-12T02:15:35.649Z,24.04
2023-04-12T02:16:35.723Z,24.04
2023-04-12T02:17:35.779Z,24.05
2023-04-12T02:18:35.821Z,24.04
2023-04-12T02:19:35.877Z,24.04
2023-04-12T02:20:35.874Z,24.04
2023-04-12T02:21:35.933Z,24.04
2023-04-12T02:22:35.940Z,24.04
2023-04-12T02:23:35.998Z,24.05
2023-04-12T02:24:36.037Z,24.04
2023-04-12T02:25:36.094Z,24.03
2023-04-12T02:26:36.107Z,24.03
2023-04-12T02:27:36.173Z,24.05
2023-04-12T02:28:36.204Z,24.04
2023-04-12T02:29:36.265Z,24.04
2023-04-12T02:30:36.356Z,24.04
2023-04-12T02:31:36.333Z,24.04
2023-04-12T02:32:36.407Z,24.04
2023-04-12T02:33:36.421Z,24.04
2023-04-12T02:34:36.560Z,24.04
2023-04-12T02:35:36.568Z,24.04
2023-04-12T02:36:36.544Z,24.04
2023-04-12T02:37:36.606Z,24.05
2023-04-12T02:38:36.604Z,24.03
2023-04-12T02:39:36.626Z,24.04
2023-04-12T02:40:36.703Z,24.04
2023-04-12T02:41:36.774Z,24.04
2023-04-12T02:42:36.810Z,24.04
2023-04-12T02:43:36.775Z,24.04
2023-04-12T02:44:36.823Z,24.04
2023-04-12T02:45:36.849Z,24.03
2023-04-12T02:46:36.930Z,24.04
2023-04-12T02:47:36.965Z,24.03
2023-04-12T02:48:36.991Z,24.04
2023-04-12T02:49:36.989Z,24.03
2023-04-12T02:50:37.018Z,24.04
2023-04-12T02:51:37.017Z,24.03
2023-04-12T02:52:37.045Z,24.02
2023-04-12T02:53:37.116Z,24.03
2023-04-12T02:54:37.104Z,24.03
2023-04-12T02:55:37.146Z,24.03
2023-04-12T02:56:37.201Z,24.03
2023-04-12T02:57:37.258Z,24.02
2023-04-12T02:58:37.699Z,24.03
2023-04-12T02:59:37.359Z,24.03
2023-04-12T03:00:37.390Z,24.03
2023-04-12T03:01:37.517Z,24.03
2023-04-12T03:02:37.649Z,24.03
2023-04-12T03:03:37.704Z,24.02
2023-04-12T03:04:37.606Z,24.02
2023-04-12T03:05:37.669Z,24.03
2023-04-12T03:06:37.688Z,24.02
2023-04-12T03:07:37.738Z,24.02
2023-04-12T03:08:37.796Z,24.03
2023-04-12T03:09:37.820Z,24.03
2023-04-12T03:10:37.898Z,24.02
2023-04-12T03:11:37.941Z,24.02
2023-04-12T03:12:37.995Z,24.02
2023-04-12T03:13:38.035Z,24.02
2023-04-12T03:14:38.081Z,24.02
2023-04-12T03:15:38.211Z,24.01
2023-04-12T03:16:38.193Z,24.02
2023-04-12T03:17:38.283Z,24.02
2023-04-12T03:18:38.316Z,24.01
2023-04-12T03:19:38.320Z,24.02
2023-04-12T03:20:38.387Z,24.02
2023-04-12T03:21:38.363Z,24.03
2023-04-12T03:22:38.406Z,24.02
2023-04-12T03:23:38.468Z,24.03
2023-04-12T03:24:38.531Z,24.02
2023-04-12T03:25:38.617Z,24.01
2023-04-12T03:26:38.642Z,24.01
2023-04-12T03:27:38.692Z,24.02
2023-04-12T03:28:38.750Z,24.02
2023-04-12T03:29:38.781Z,24.02
2023-04-12T03:30:38.830Z,24.02
2023-04-12T03:31:38.935Z,24.02
2023-04-12T03:32:38.982Z,24.02
2023-04-12T03:33:38.997Z,24.02
2023-04-12T03:34:39.046Z,24.02
2023-04-12T03:35:39.165Z,24.02
2023-04-12T03:36:39.135Z,24.02
2023-04-12T03:37:39.198Z,24.02
2023-04-12T03:38:39.257Z,24.02
2023-04-12T03:39:39.270Z,24.03
2023-04-12T03:40:39.344Z,24.02
2023-04-12T03:41:39.390Z,24.02
2023-04-12T03:42:39.427Z,24.02
2023-04-12T03:43:39.458Z,24.02
2023-04-12T03:44:39.514Z,24.03
2023-04-12T03:45:39.585Z,24.02
2023-04-12T03:46:39.666Z,24.03
2023-04-12T03:47:39.721Z,24.02
2023-04-12T03:48:39.747Z,24.02
2023-04-12T03:49:39.781Z,24.02
2023-04-12T03:50:39.854Z,24.02
2023-04-12T03:51:39.860Z,24.02
2023-04-12T03:52:39.937Z,24.02
2023-04-12T03:53:39.958Z,24.02
2023-04-12T03:54:39.993Z,24.01
2023-04-12T03:55:40.034Z,24.02
2023-04-12T03:56:40.098Z,24.02
2023-04-12T03:57:40.178Z,24.02
2023-04-12T03:58:40.180Z,24.01
2023-04-12T03:59:40.244Z,24.01
2023-04-12T04:00:40.300Z,24.01
2023-04-12T04:01:40.395Z,24.01
2023-04-12T04:02:40.479Z,24.02
2023-04-12T04:03:40.536Z,24.01
2023-04-12T04:04:40.551Z,24.01
2023-04-12T04:05:40.535Z,24.00
2023-04-12T04:06:40.572Z,24.01
2023-04-12T04:07:40.630Z,24.01
2023-04-12T04:08:40.708Z,24.00
2023-04-12T04:09:40.764Z,24.01
2023-04-12T04:10:40.805Z,24.01
2023-04-12T04:11:40.860Z,24.01
2023-04-12T04:12:40.890Z,24.01
2023-04-12T04:13:40.962Z,24.01
2023-04-12T04:14:41.009Z,24.01
2023-04-12T04:15:41.094Z,24.02
2023-04-12T04:16:41.230Z,24.01
2023-04-12T04:17:41.194Z,24.01
2023-04-12T04:18:41.243Z,24.01
2023-04-12T04:19:41.285Z,24.01
2023-04-12T04:20:41.362Z,24.00
2023-04-12T04:21:41.408Z,24.01
2023-04-12T04:22:41.474Z,24.01
2023-04-12T04:23:41.503Z,24.01
2023-04-12T04:24:41.547Z,24.01
2023-04-12T04:25:41.607Z,24.01
2023-04-12T04:26:41.629Z,24.02
2023-04-12T04:27:41.707Z,24.01
2023-04-12T04:28:41.737Z,24.01
2023-04-12T04:29:41.820Z,24.02
2023-04-12T04:30:41.898Z,24.01
2023-04-12T04:31:42.009Z,24.02
2023-04-12T04:32:42.092Z,24.02
2023-04-12T04:33:42.070Z,24.02
2023-04-12T04:34:42.095Z,24.02
2023-04-12T04:35:42.131Z,24.03
2023-04-12T04:36:42.163Z,24.03
2023-04-12T04:37:42.244Z,24.03
2023-04-12T04:38:42.286Z,24.03
2023-04-12T04:39:42.336Z,24.04
2023-04-12T04:40:42.383Z,24.04
2023-04-12T04:41:42.433Z,24.05
2023-04-12T04:42:42.434Z,24.05
2023-04-12T04:43:42.503Z,24.07
2023-04-12T04:44:42.564Z,24.07
2023-04-12T04:45:42.585Z,24.07
2023-04-12T04:46:42.636Z,24.07
2023-04-12T04:47:42.731Z,24.08
2023-04-12T04:48:42.745Z,24.09
2023-04-12T04:49:42.786Z,24.09
2023-04-12T04:50:42.825Z,24.10
2023-04-12T04:51:42.875Z,24.11
2023-04-12T04:52:42.917Z,24.11
2023-04-12T04:53:42.984Z,24.12
2023-04-12T04:54:43.032Z,24.12
2023-04-12T04:55:43.087Z,24.12
2023-04-12T04:56:43.136Z,24.13
2023-04-12T04:57:43.150Z,24.13
2023-04-12T04:58:43.294Z,24.13
2023-04-12T04:59:43.244Z,24.14
2023-04-12T05:00:50.290Z,24.15
2023-04-12T05:01:43.472Z,24.15
2023-04-12T05:02:43.484Z,24.15
2023-04-12T05:03:43.429Z,24.17
2023-04-12T05:04:43.352Z,24.17
2023-04-12T05:05:43.353Z,24.18
2023-04-12T05:06:43.408Z,24.18
2023-04-12T05:07:43.442Z,24.18
2023-04-12T05:08:43.416Z,24.20
2023-04-12T05:09:43.443Z,24.19
2023-04-12T05:10:43.420Z,24.21
2023-04-12T05:11:43.453Z,24.21
2023-04-12T05:12:43.462Z,24.21
2023-04-12T05:13:43.486Z,24.22
2023-04-12T05:14:48.159Z,24.22
2023-04-12T05:15:44.479Z,24.22
2023-04-12T05:16:43.572Z,24.22
2023-04-12T05:17:43.521Z,24.23
2023-04-12T05:18:43.553Z,24.23
2023-04-12T05:19:43.541Z,24.24
2023-04-12T05:20:43.570Z,24.25
2023-04-12T05:21:43.573Z,24.25
2023-04-12T05:22:43.619Z,24.25
2023-04-12T05:23:43.631Z,24.25
2023-04-12T05:24:43.617Z,24.26
2023-04-12T05:25:43.639Z,24.27
2023-04-12T05:26:43.637Z,24.26
2023-04-12T05:27:43.647Z,24.27
2023-04-12T05:28:43.708Z,24.27
2023-04-12T05:29:43.725Z,24.27
2023-04-12T05:30:43.740Z,24.28
2023-04-12T05:31:43.702Z,24.28
2023-04-12T05:32:43.818Z,24.28
2023-04-12T05:33:43.970Z,24.27
2023-04-12T05:34:43.771Z,24.22
2023-04-12T05:35:43.867Z,24.09
2023-04-12T05:36:43.866Z,23.91
2023-04-12T05:37:43.775Z,23.78
2023-04-12T05:38:44.480Z,23.64
2023-04-12T05:39:43.889Z,23.61
2023-04-12T05:40:43.928Z,23.55
2023-04-12T05:41:43.984Z,23.52
2023-04-12T05:42:44.068Z,23.45
2023-04-12T05:43:44.167Z,23.38
2023-04-12T05:44:44.286Z,23.27
2023-04-12T05:45:51.461Z,23.13
2023-04-12T05:46:44.466Z,23.10
2023-04-12T05:47:44.444Z,23.10
2023-04-12T05:48:44.401Z,23.10
2023-04-12T05:49:44.803Z,23.16
2023-04-12T05:50:44.496Z,23.22
2023-04-12T05:51:44.541Z,23.27
2023-04-12T05:52:44.501Z,23.31
2023-04-12T05:53:44.541Z,23.35
2023-04-12T05:54:44.785Z,23.38
2023-04-12T05:55:44.598Z,23.42
2023-04-12T05:56:44.685Z,23.44
2023-04-12T05:57:44.688Z,23.46
2023-04-12T05:58:45.305Z,23.49
2023-04-12T05:59:44.762Z,23.50
2023-04-12T06:00:44.779Z,23.51
2023-04-12T06:01:44.828Z,23.52
2023-04-12T06:02:44.948Z,23.53
2023-04-12T06:03:44.981Z,23.53
2023-04-12T06:04:50.120Z,23.53
2023-04-12T06:05:46.066Z,23.54
2023-04-12T06:06:44.935Z,23.54
2023-04-12T06:07:44.966Z,23.54
2023-04-12T06:08:45.039Z,23.53
2023-04-12T06:09:45.071Z,23.52
2023-04-12T06:10:45.056Z,23.50
2023-04-12T06:11:45.075Z,23.50
2023-04-12T06:12:45.114Z,23.50
2023-04-12T06:13:45.159Z,23.49
2023-04-12T06:14:45.205Z,23.48
2023-04-12T06:15:45.273Z,23.46
2023-04-12T06:16:45.427Z,23.45
2023-04-12T06:17:45.573Z,23.46
2023-04-12T06:18:45.575Z,23.46
2023-04-12T06:19:45.595Z,23.46
2023-04-12T06:20:45.712Z,23.46
2023-04-12T06:21:45.748Z,23.45
2023-04-12T06:22:45.898Z,23.44
2023-04-12T06:23:45.962Z,23.44
2023-04-12T06:24:46.047Z,23.43
2023-04-12T06:25:46.000Z,23.42
2023-04-12T06:26:46.134Z,23.39
2023-04-12T06:27:46.221Z,23.38
2023-04-12T06:28:48.617Z,23.37
2023-04-12T06:29:46.532Z,23.36
2023-04-12T06:30:46.905Z,23.37
2023-04-12T06:31:46.664Z,23.38
2023-04-12T06:32:46.659Z,23.36
2023-04-12T06:33:46.577Z,23.36
2023-04-12T06:34:46.838Z,23.35
2023-04-12T06:35:46.701Z,23.36
2023-04-12T06:36:46.668Z,23.36
2023-04-12T06:37:46.708Z,23.27
2023-04-12T06:38:46.819Z,23.24
2023-04-12T06:39:47.471Z,23.22
2023-04-12T06:40:46.950Z,23.22
2023-04-12T06:41:47.792Z,23.25
2023-04-12T06:42:46.919Z,23.30
2023-04-12T06:43:47.054Z,23.34
2023-04-12T06:44:47.068Z,23.38
2023-04-12T06:45:47.132Z,23.38
2023-04-12T06:46:47.183Z,23.39
2023-04-12T06:47:47.247Z,23.38
2023-04-12T06:48:47.264Z,23.37
2023-04-12T06:49:47.279Z,23.37
2023-04-12T06:50:47.402Z,23.37
2023-04-12T06:51:47.401Z,23.36
2023-04-12T06:52:47.419Z,23.35
2023-04-12T06:53:47.539Z,23.38
2023-04-12T06:54:47.512Z,23.42
2023-04-12T06:55:47.549Z,23.44
2023-04-12T06:56:47.636Z,23.44
2023-04-12T06:57:47.671Z,23.46
2023-04-12T06:58:47.701Z,23.49
2023-04-12T06:59:47.809Z,23.53
2023-04-12T07:00:47.965Z,23.56
2023-04-12T07:01:48.102Z,23.57
2023-04-12T07:02:48.181Z,23.60
2023-04-12T07:03:48.210Z,23.61
2023-04-12T07:04:48.240Z,23.63
2023-04-12T07:05:48.389Z,23.61
2023-04-12T07:06:48.332Z,23.60
2023-04-12T07:07:48.421Z,23.59
2023-04-12T07:08:48.525Z,23.60
2023-04-12T07:09:48.589Z,23.62
2023-04-12T07:10:48.814Z,23.65
2023-04-12T07:11:48.683Z,23.67
2023-04-12T07:12:48.815Z,23.69
2023-04-12T07:13:48.834Z,23.72
2023-04-12T07:14:48.924Z,23.73
2023-04-12T07:15:48.946Z,23.75
2023-04-12T07:16:49.124Z,23.76
2023-04-12T07:17:49.079Z,23.78
2023-04-12T07:18:49.139Z,23.78
2023-04-12T07:19:49.222Z,23.78
2023-04-12T07:20:49.285Z,23.76
2023-04-12T07:21:49.469Z,23.75
2023-04-12T07:22:49.427Z,23.74
2023-04-12T07:23:49.531Z,23.73
2023-04-12T07:24:49.571Z,23.71
2023-04-12T07:25:49.678Z,23.72
2023-04-12T07:26:49.717Z,23.72
2023-04-12T07:27:51.726Z,23.72
2023-04-12T07:28:49.852Z,23.72
2023-04-12T07:29:49.927Z,23.74
2023-04-12T07:30:50.030Z,23.75
2023-04-12T07:31:50.078Z,23.77
2023-04-12T07:32:50.244Z,23.79
2023-04-12T07:33:50.308Z,23.82
2023-04-12T07:34:50.362Z,23.83
2023-04-12T07:35:50.346Z,23.84
2023-04-12T07:36:50.401Z,23.87
2023-04-12T07:37:51.015Z,23.88
2023-04-12T07:38:50.541Z,23.88
2023-04-12T07:39:50.775Z,23.89
2023-04-12T07:40:50.707Z,23.90
2023-04-12T07:41:50.702Z,23.92
2023-04-12T07:42:50.752Z,23.93
2023-04-12T07:43:50.843Z,23.94
2023-04-12T07:44:50.965Z,23.96
2023-04-12T07:45:50.973Z,24.00
2023-04-12T07:46:51.000Z,24.03
2023-04-12T07:47:51.097Z,24.08
2023-04-12T07:48:51.164Z,24.15
2023-04-12T07:49:51.120Z,24.20
2023-04-12T07:50:51.146Z,24.22
2023-04-12T07:51:51.183Z,23.97
2023-04-12T07:52:51.231Z,23.53
2023-04-12T07:53:51.301Z,23.25
2023-04-12T07:54:51.420Z,22.91
2023-04-12T07:55:51.454Z,22.80
2023-04-12T07:56:51.435Z,22.51
2023-04-12T07:57:51.504Z,22.43
2023-04-12T07:58:51.538Z,22.24
2023-04-12T07:59:51.852Z,22.02
2023-04-12T08:00:51.710Z,22.06
2023-04-12T08:01:51.837Z,22.02
2023-04-12T08:02:52.058Z,22.16
2023-04-12T08:03:52.928Z,22.28
2023-04-12T08:04:52.048Z,22.40
2023-04-12T08:05:52.156Z,22.52
2023-04-12T08:06:52.243Z,22.61
2023-04-12T08:07:52.264Z,22.70
2023-04-12T08:08:52.413Z,22.79
2023-04-12T08:09:52.915Z,22.86
2023-04-12T08:10:52.408Z,22.91
2023-04-12T08:11:52.514Z,22.99
2023-04-12T08:12:52.519Z,23.03
2023-04-12T08:13:52.598Z,23.07
2023-04-12T08:14:52.629Z,23.13
2023-04-12T08:15:52.747Z,23.20
2023-04-12T08:16:52.719Z,23.25
2023-04-12T08:17:52.813Z,23.29
2023-04-12T08:18:52.811Z,23.30
2023-04-12T08:19:52.846Z,23.32
2023-04-12T08:20:52.958Z,23.32
2023-04-12T08:21:53.025Z,23.33
2023-04-12T08:22:53.111Z,23.34
2023-04-12T08:23:53.204Z,23.32
2023-04-12T08:24:53.328Z,23.27
2023-04-12T08:25:53.328Z,23.26
2023-04-12T08:26:53.433Z,23.23
2023-04-12T08:27:54.379Z,23.20
2023-04-12T08:28:53.510Z,23.21
2023-04-12T08:29:54.439Z,23.23
2023-04-12T08:30:53.705Z,23.24
2023-04-12T08:31:53.767Z,23.26
2023-04-12T08:32:53.922Z,23.26
2023-04-12T08:33:53.921Z,23.22
2023-04-12T08:34:53.965Z,23.24
2023-04-12T08:35:54.407Z,23.27
2023-04-12T08:36:54.160Z,23.29
2023-04-12T08:37:54.243Z,23.32
2023-04-12T08:38:54.298Z,23.36
2023-04-12T08:39:54.348Z,23.37
2023-04-12T08:40:54.418Z,23.40
2023-04-12T08:41:54.534Z,23.45
2023-04-12T08:42:55.985Z,23.48
2023-04-12T08:43:54.649Z,23.52
2023-04-12T08:44:55.481Z,23.55
2023-04-12T08:45:54.804Z,23.57
2023-04-12T08:46:54.844Z,23.59
2023-04-12T08:47:54.947Z,23.59
2023-04-12T08:48:54.911Z,23.59
2023-04-12T08:49:55.014Z,23.59
2023-04-12T08:50:55.081Z,23.61
2023-04-12T08:51:55.112Z,23.64
2023-04-12T08:52:55.160Z,23.68
2023-04-12T08:53:55.290Z,23.73
2023-04-12T08:54:55.263Z,23.77
2023-04-12T08:55:55.319Z,23.83
2023-04-12T08:56:55.319Z,23.88
2023-04-12T08:57:55.336Z,23.93
2023-04-12T08:58:55.378Z,23.98
2023-04-12T08:59:55.381Z,24.01
2023-04-12T09:00:55.854Z,24.04
2023-04-12T09:01:55.591Z,24.08
2023-04-12T09:02:55.752Z,24.12
2023-04-12T09:03:55.835Z,24.15
2023-04-12T09:04:55.672Z,24.19
2023-04-12T09:05:55.883Z,24.24
2023-04-12T09:06:55.829Z,24.28
2023-04-12T09:07:55.865Z,24.31
2023-04-12T09:08:55.941Z,24.34
2023-04-12T09:09:56.033Z,24.37
2023-04-12T09:10:56.392Z,24.42
2023-04-12T09:11:56.178Z,24.45
2023-04-12T09:12:56.211Z,24.47
2023-04-12T09:13:56.731Z,24.49
2023-04-12T09:14:56.354Z,24.51
2023-04-12T09:15:56.436Z,24.54
2023-04-12T09:16:56.527Z,24.60
2023-04-12T09:17:56.589Z,24.65
2023-04-12T09:18:56.796Z,24.67
2023-04-12T09:19:56.611Z,24.71
2023-04-12T09:20:56.714Z,24.73
2023-04-12T09:21:56.758Z,24.75
2023-04-12T09:22:56.778Z,24.75
2023-04-12T09:23:57.038Z,24.77
2023-04-12T09:24:56.904Z,24.79
2023-04-12T09:25:57.419Z,24.82
2023-04-12T09:26:56.984Z,24.84
2023-04-12T09:27:57.124Z,24.85
2023-04-12T09:28:57.133Z,24.87
2023-04-12T09:29:59.009Z,24.90
2023-04-12T09:30:57.292Z,24.91
2023-04-12T09:31:57.358Z,24.92
2023-04-12T09:32:57.273Z,24.94
2023-04-12T09:33:57.440Z,24.96
2023-04-12T09:34:57.264Z,24.96
2023-04-12T09:35:57.276Z,24.98
2023-04-12T09:36:57.246Z,25.00
2023-04-12T09:37:57.269Z,25.02
2023-04-12T09:38:57.304Z,25.02
2023-04-12T09:39:57.289Z,25.04
2023-04-12T09:40:57.472Z,25.04
2023-04-12T09:41:57.314Z,25.05
2023-04-12T09:42:57.282Z,24.99
2023-04-12T09:43:57.543Z,24.82
2023-04-12T09:44:57.311Z,24.74
2023-04-12T09:45:57.415Z,24.63
2023-04-12T09:46:57.416Z,24.64
2023-04-12T09:47:57.375Z,24.66
2023-04-12T09:48:57.336Z,24.62
2023-04-12T09:49:57.331Z,24.64
2023-04-12T09:50:57.338Z,24.58
2023-04-12T09:51:59.448Z,24.61
2023-04-12T09:52:57.392Z,24.62
2023-04-12T09:53:57.486Z,24.64
2023-04-12T09:54:57.412Z,24.65
2023-04-12T09:55:57.520Z,24.66
2023-04-12T09:56:57.468Z,24.65
2023-04-12T09:57:57.424Z,24.64
2023-04-12T09:58:57.651Z,24.63
2023-04-12T09:59:57.453Z,24.61
2023-04-12T10:00:57.412Z,24.59
2023-04-12T10:01:57.505Z,24.57
2023-04-12T10:02:57.917Z,24.55
2023-04-12T10:03:57.932Z,24.53
2023-04-12T10:04:57.638Z,24.49
2023-04-12T10:05:57.963Z,24.47
2023-04-12T10:06:57.821Z,24.44
2023-04-12T10:07:57.562Z,24.43
2023-04-12T10:08:57.695Z,24.42
2023-04-12T10:09:57.541Z,24.40
2023-04-12T10:10:57.939Z,24.39
2023-04-12T10:11:57.672Z,24.36
2023-04-12T10:12:57.659Z,24.35
2023-04-12T10:13:57.926Z,24.33
2023-04-12T10:14:57.753Z,24.31
2023-04-12T10:15:57.945Z,24.31
2023-04-12T10:16:57.897Z,24.29
2023-04-12T10:17:58.000Z,24.29
2023-04-12T10:18:58.086Z,24.29
2023-04-12T10:19:57.931Z,24.28
2023-04-12T10:20:58.062Z,24.22
2023-04-12T10:21:58.067Z,24.20
2023-04-12T10:22:58.108Z,24.19
2023-04-12T10:23:58.196Z,24.18
2023-04-12T10:24:58.277Z,24.18
2023-04-12T10:25:58.271Z,24.18
2023-04-12T10:26:58.344Z,24.13
2023-04-12T10:27:58.435Z,24.10
2023-04-12T10:28:58.576Z,24.08
2023-04-12T10:29:58.455Z,24.04
2023-04-12T10:30:58.985Z,24.03
2023-04-12T10:31:58.650Z,24.00
2023-04-12T10:32:58.703Z,24.00
2023-04-12T10:33:58.667Z,23.99
2023-04-12T10:34:58.782Z,23.99
2023-04-12T10:35:58.979Z,24.00
2023-04-12T10:36:58.886Z,23.96
2023-04-12T10:37:58.880Z,23.93
2023-04-12T10:38:59.418Z,23.92
2023-04-12T10:39:59.046Z,23.89
2023-04-12T10:40:59.454Z,23.87
2023-04-12T10:41:59.185Z,23.85
2023-04-12T10:42:59.240Z,23.81
2023-04-12T10:43:59.297Z,23.77
2023-04-12T10:45:01.135Z,23.74
2023-04-12T10:45:59.450Z,23.70
2023-04-12T10:46:59.548Z,23.67
2023-04-12T10:47:59.619Z,23.64
2023-04-12T10:48:59.738Z,23.61
2023-04-12T10:49:59.834Z,23.59
2023-04-12T10:50:59.827Z,23.57
2023-04-12T10:51:59.866Z,23.52
2023-04-12T10:52:59.950Z,23.48
2023-04-12T10:54:00.105Z,23.45
2023-04-12T10:55:00.081Z,23.48
2023-04-12T10:56:00.315Z,23.44
2023-04-12T10:57:00.249Z,23.39
2023-04-12T10:58:00.299Z,23.37
2023-04-12T10:59:00.738Z,23.31
2023-04-12T11:00:00.417Z,23.31
2023-04-12T11:01:00.645Z,23.28
2023-04-12T11:02:00.767Z,23.26
2023-04-12T11:03:00.806Z,23.24
2023-04-12T11:04:00.909Z,23.25
2023-04-12T11:05:00.799Z,23.26
2023-04-12T11:06:06.436Z,23.26
2023-04-12T11:07:01.908Z,23.26
2023-04-12T11:08:00.962Z,23.28
2023-04-12T11:09:01.149Z,23.29
2023-04-12T11:10:00.977Z,23.31
2023-04-12T11:11:01.440Z,23.31
2023-04-12T11:12:01.007Z,23.29
2023-04-12T11:13:01.097Z,23.29
2023-04-12T11:14:01.129Z,23.27
2023-04-12T11:15:01.173Z,23.24
2023-04-12T11:16:01.488Z,23.24
2023-04-12T11:17:01.214Z,23.22
2023-04-12T11:18:02.018Z,23.22
2023-04-12T11:19:01.245Z,23.22
2023-04-12T11:20:01.313Z,23.25
2023-04-12T11:21:01.383Z,23.29
2023-04-12T11:22:01.433Z,23.32
2023-04-12T11:23:01.573Z,23.34
2023-04-12T11:24:01.644Z,23.35
2023-04-12T11:25:01.688Z,23.34
2023-04-12T11:26:01.958Z,23.36
2023-04-12T11:27:02.018Z,23.40
2023-04-12T11:28:01.905Z,23.44
2023-04-12T11:29:02.051Z,23.49
2023-04-12T11:30:02.058Z,23.53
2023-04-12T11:31:03.730Z,23.57
2023-04-12T11:32:02.905Z,23.61
2023-04-12T11:33:03.712Z,23.64
2023-04-12T11:34:02.432Z,23.68
2023-04-12T11:35:02.468Z,23.71
2023-04-12T11:36:02.556Z,23.73
2023-04-12T11:37:02.957Z,23.77
2023-04-12T11:38:02.707Z,23.78
2023-04-12T11:39:02.764Z,23.80
2023-04-12T11:40:02.836Z,23.83
2023-04-12T11:41:02.892Z,23.84
2023-04-12T11:42:02.936Z,23.86
2023-04-12T11:43:03.015Z,23.88
2023-04-12T11:44:03.057Z,23.90
2023-04-12T11:45:09.517Z,23.91
2023-04-12T11:46:04.192Z,23.93
2023-04-12T11:47:03.471Z,23.95
2023-04-12T11:48:03.180Z,23.97
2023-04-12T11:49:03.144Z,23.98
2023-04-12T11:50:03.149Z,24.00
2023-04-12T11:51:11.086Z,24.01
2023-04-12T11:52:04.476Z,24.01
2023-04-12T11:53:03.215Z,24.03
2023-04-12T11:54:03.283Z,24.04
2023-04-12T11:55:03.264Z,24.06
2023-04-12T11:56:03.286Z,24.07
2023-04-12T11:57:05.065Z,24.08
2023-04-12T11:58:03.342Z,24.09
2023-04-12T11:59:03.374Z,24.11
2023-04-12T12:00:03.398Z,24.11
2023-04-12T12:01:03.482Z,24.12
2023-04-12T12:02:13.818Z,24.13
2023-04-12T12:03:07.718Z,24.13
2023-04-12T12:04:04.954Z,24.13
2023-04-12T12:05:03.712Z,24.15
2023-04-12T12:06:03.805Z,24.15
2023-04-12T12:07:04.154Z,24.16
2023-04-12T12:08:03.580Z,24.17
2023-04-12T12:09:03.589Z,24.16
2023-04-12T12:10:03.682Z,24.18
2023-04-12T12:11:07.788Z,24.18
2023-04-12T12:12:04.641Z,24.18
2023-04-12T12:13:03.619Z,24.19
2023-04-12T12:14:03.646Z,24.20
2023-04-12T12:15:03.662Z,24.20
2023-04-12T12:16:03.732Z,24.21
2023-04-12T12:17:03.687Z,24.21
2023-04-12T12:18:03.817Z,24.22
2023-04-12T12:19:03.738Z,24.22
2023-04-12T12:20:03.751Z,24.22
2023-04-12T12:21:03.768Z,24.23
2023-04-12T12:22:03.789Z,24.22
2023-04-12T12:23:03.789Z,24.23
2023-04-12T12:24:03.816Z,24.23
2023-04-12T12:25:03.824Z,24.24
2023-04-12T12:26:16.850Z,24.24
2023-04-12T12:27:04.854Z,24.24
2023-04-12T12:28:03.954Z,24.25
2023-04-12T12:29:03.884Z,24.25
2023-04-12T12:30:03.945Z,24.26
2023-04-12T12:31:03.961Z,24.27
2023-04-12T12:32:03.937Z,24.26
2023-04-12T12:33:03.971Z,24.27
2023-04-12T12:34:07.394Z,24.27
2023-04-12T12:35:04.962Z,24.27
2023-04-12T12:36:04.005Z,24.27
2023-04-12T12:37:04.001Z,24.27
2023-04-12T12:38:04.028Z,24.28
2023-04-12T12:39:04.005Z,24.29
2023-04-12T12:40:04.051Z,24.29
2023-04-12T12:41:04.019Z,24.30
2023-04-12T12:42:04.026Z,24.29
2023-04-12T12:43:04.063Z,24.29
2023-04-12T12:44:04.087Z,24.30
2023-04-12T12:45:04.108Z,24.30
2023-04-12T12:46:04.081Z,24.30
2023-04-12T12:47:13.663Z,24.31
2023-04-12T12:48:05.280Z,24.30
2023-04-12T12:49:04.189Z,24.31
2023-04-12T12:50:04.138Z,24.31
2023-04-12T12:51:04.164Z,24.30
2023-04-12T12:52:04.500Z,24.31
2023-04-12T12:53:04.215Z,24.30